Time;durP1;ratioP1;P1;durP2;ratioP2;P2;SDS_P1;SDS_P2;PMS_P1;PMS_P2;Temp;Humidity;BMP_temperature;BMP_pressure;BME280_temperature;BME280_humidity;BME280_pressure;Samples;Min_cycle;Max_cycle;Signal;HPM_P1;HPM_P2
2024/01/15 00:01:57;;;;;;;3.03;1.83;;;;;;;1.98;57.58;91292.44;2044389;70;20139;-78
2024/01/15 00:04:23;;;;;;;3.45;1.90;;;;;;;2.10;56.73;91292.53;2044570;70;20508;-78
2024/01/15 00:06:50;;;;;;;4.20;2.25;;;;;;;2.13;57.49;91294.84;2044921;70;20182;-78
2024/01/15 00:09:16;;;;;;;3.25;1.80;;;;;;;2.15;59.38;91281.09;2044343;70;20142;-78
2024/01/15 00:11:42;;;;;;;3.63;1.90;;;;;;;1.96;59.95;91272.84;2044800;70;20590;-78
2024/01/15 00:14:09;;;;;;;5.35;2.22;;;;;;;2.08;60.02;91261.88;2044849;70;20146;-78
2024/01/15 00:16:35;;;;;;;4.57;2.22;;;;;;;2.11;60.64;91255.88;2044763;70;20255;-78
2024/01/15 00:19:00;;;;;;;3.70;2.22;;;;;;;2.00;61.78;91253.72;2044308;70;20175;-78
2024/01/15 00:21:27;;;;;;;3.05;2.13;;;;;;;1.97;61.15;91238.22;2044943;70;20198;-78
2024/01/15 00:23:54;;;;;;;2.80;1.80;;;;;;;1.83;63.95;91249.09;2044835;70;20242;-78
2024/01/15 00:26:19;;;;;;;2.88;1.60;;;;;;;1.94;62.76;91239.44;2044041;70;20139;-78
2024/01/15 00:28:45;;;;;;;4.07;2.00;;;;;;;2.02;62.13;91251.81;2044763;70;20147;-78
2024/01/15 00:31:11;;;;;;;3.60;2.00;;;;;;;2.06;61.91;91256.88;2044953;70;20607;-79
2024/01/15 00:33:36;;;;;;;3.53;2.00;;;;;;;2.04;61.89;91251.22;2044820;70;20151;-78
2024/01/15 00:36:03;;;;;;;2.67;1.77;;;;;;;1.96;62.31;91245.09;2044707;70;20218;-78
2024/01/15 00:38:28;;;;;;;3.35;1.80;;;;;;;1.95;62.64;91236.06;2044746;70;20512;-79
2024/01/15 00:40:56;;;;;;;3.45;1.85;;;;;;;2.00;61.34;91235.00;2044884;70;20245;-78
2024/01/15 00:43:21;;;;;;;3.55;1.90;;;;;;;1.93;61.77;91243.53;2044600;70;20154;-78
2024/01/15 00:45:47;;;;;;;3.13;1.88;;;;;;;2.10;60.05;91240.50;2044708;70;20135;-77
2024/01/15 00:48:12;;;;;;;4.50;2.20;;;;;;;2.04;61.36;91229.72;2044766;70;20151;-77
2024/01/15 00:50:38;;;;;;;4.55;1.88;;;;;;;2.07;60.36;91230.59;2044810;70;20588;-78
2024/01/15 00:53:05;;;;;;;4.10;1.88;;;;;;;2.20;60.09;91229.34;2044835;70;20288;-77
2024/01/15 00:55:30;;;;;;;3.78;1.95;;;;;;;2.15;61.05;91231.13;2044877;70;20209;-77
2024/01/15 00:57:56;;;;;;;4.32;2.08;;;;;;;2.03;61.25;91225.50;2044618;70;20143;-77
2024/01/15 01:00:22;;;;;;;2.95;1.88;;;;;;;2.03;61.47;91206.06;2044173;70;20154;-78
2024/01/15 01:02:47;;;;;;;2.25;1.40;;;;;;;2.00;62.71;91212.81;2044122;70;20150;-78
2024/01/15 01:05:13;;;;;;;2.75;1.63;;;;;;;2.12;61.86;91210.13;2044784;70;20214;-78
2024/01/15 01:07:39;;;;;;;3.22;1.80;;;;;;;1.76;63.15;91219.47;2044885;70;20194;-78
2024/01/15 01:10:05;;;;;;;3.67;1.75;;;;;;;2.05;62.21;91222.13;2044932;70;20619;-78
2024/01/15 01:12:31;;;;;;;3.45;2.10;;;;;;;2.02;60.97;91223.31;2044409;70;20158;-78
2024/01/15 01:14:56;;;;;;;3.90;2.10;;;;;;;1.96;62.20;91217.34;2044871;70;20147;-78
2024/01/15 01:17:22;;;;;;;3.10;1.77;;;;;;;2.04;61.92;91212.34;2045132;70;20512;-78
2024/01/15 01:19:49;;;;;;;3.70;2.13;;;;;;;1.54;63.65;91202.03;2044768;70;20142;-78
2024/01/15 01:22:15;;;;;;;3.20;2.00;;;;;;;1.80;63.51;91202.38;2044797;70;20162;-79
2024/01/15 01:24:41;;;;;;;3.70;1.98;;;;;;;2.01;62.82;91196.88;2044657;70;20241;-77
2024/01/15 01:27:07;;;;;;;3.00;1.60;;;;;;;2.08;63.06;91184.16;2044039;70;20139;-78
2024/01/15 01:29:32;;;;;;;3.22;1.48;;;;;;;2.06;63.60;91184.72;2044677;70;20624;-78
2024/01/15 01:31:58;;;;;;;2.63;1.42;;;;;;;2.06;64.89;91197.88;2044828;70;20158;-78
2024/01/15 01:34:24;;;;;;;4.78;1.90;;;;;;;1.74;64.21;91189.56;2044668;70;20153;-78
2024/01/15 01:36:50;;;;;;;2.90;1.73;;;;;;;1.75;64.67;91202.13;2045382;70;20170;-77
2024/01/15 01:39:15;;;;;;;3.80;1.77;;;;;;;1.96;64.16;91204.19;2045249;70;20298;-78
2024/01/15 01:41:41;;;;;;;3.25;1.77;;;;;;;1.61;64.88;91222.63;2045059;70;20141;-78
2024/01/15 01:44:07;;;;;;;3.50;2.03;;;;;;;1.89;63.86;91221.03;2045731;70;20154;-78
2024/01/15 01:46:34;;;;;;;3.72;1.90;;;;;;;1.80;64.26;91210.72;2047897;70;20143;-78
2024/01/15 01:49:05;;;;;;;5.25;1.80;;;;;;;1.90;63.87;91203.06;2045837;70;20244;-78
2024/01/15 01:51:31;;;;;;;3.72;1.88;;;;;;;1.75;64.06;91199.34;2045767;70;20135;-77
2024/01/15 01:53:57;;;;;;;2.40;1.42;;;;;;;1.88;63.68;91192.56;2045854;70;20142;-77
2024/01/15 01:56:23;;;;;;;3.75;2.00;;;;;;;1.90;63.51;91189.19;2045667;70;20149;-77
2024/01/15 01:58:49;;;;;;;2.92;1.90;;;;;;;1.89;63.76;91184.97;2045616;70;20234;-76
2024/01/15 02:01:15;;;;;;;2.70;1.50;;;;;;;1.95;63.33;91174.28;2045920;70;20250;-77
2024/01/15 02:03:41;;;;;;;2.05;1.30;;;;;;;1.69;66.08;91178.75;2045759;70;20602;-77
2024/01/15 02:06:07;;;;;;;3.67;2.05;;;;;;;1.65;65.38;91187.56;2045786;70;20147;-78
2024/01/15 02:08:33;;;;;;;3.75;1.70;;;;;;;1.87;64.37;91171.66;2045819;70;20123;-77
2024/01/15 02:10:58;;;;;;;4.78;2.08;;;;;;;1.93;64.11;91163.03;2046156;70;20277;-77
2024/01/15 02:13:24;;;;;;;3.70;2.03;;;;;;;1.23;67.04;91174.97;2045790;70;20151;-78
2024/01/15 02:15:50;;;;;;;3.55;1.98;;;;;;;1.70;65.05;91180.25;2045870;70;20181;-78
2024/01/15 02:18:15;;;;;;;2.85;1.83;;;;;;;1.69;65.13;91181.53;2045755;70;20526;-79
2024/01/15 02:20:41;;;;;;;4.07;1.90;;;;;;;1.71;64.98;91176.13;2045846;70;20154;-78
2024/01/15 02:23:06;;;;;;;4.43;1.70;;;;;;;1.56;65.67;91177.22;2045781;70;20139;-78
2024/01/15 02:25:32;;;;;;;3.88;2.00;;;;;;;1.42;66.37;91187.31;2045194;70;20531;-77
2024/01/15 02:27:58;;;;;;;2.70;1.80;;;;;;;1.57;65.48;91186.28;2045788;70;20587;-77
2024/01/15 02:30:25;;;;;;;3.05;1.67;;;;;;;1.60;65.33;91176.75;2045691;70;20595;-77
2024/01/15 02:32:52;;;;;;;2.70;1.48;;;;;;;1.44;66.46;91171.56;2045716;70;20225;-77
2024/01/15 02:35:18;;;;;;;2.58;1.40;;;;;;;1.47;67.55;91178.00;2045096;70;20143;-78
2024/01/15 02:37:44;;;;;;;3.65;1.67;;;;;;;1.52;66.83;91179.72;2045643;70;20150;-76
2024/01/15 02:40:10;;;;;;;2.92;1.55;;;;;;;1.55;66.33;91172.97;2045085;70;20618;-77
2024/01/15 02:42:35;;;;;;;3.55;1.83;;;;;;;1.55;66.94;91181.28;2045553;70;20233;-76
2024/01/15 02:45:01;;;;;;;2.33;1.55;;;;;;;1.74;66.33;91177.72;2045716;70;20151;-77
2024/01/15 02:47:26;;;;;;;3.08;1.75;;;;;;;1.67;66.33;91179.34;2045254;70;20139;-77
2024/01/15 02:49:52;;;;;;;2.72;1.65;;;;;;;1.62;66.57;91174.88;2045006;70;20151;-77
2024/01/15 02:52:18;;;;;;;3.83;1.85;;;;;;;1.78;65.72;91175.22;2045178;70;20146;-78
2024/01/15 02:54:43;;;;;;;2.58;1.60;;;;;;;1.87;65.24;91180.00;2044980;70;20167;-77
2024/01/15 02:57:09;;;;;;;2.85;1.70;;;;;;;1.82;65.74;91169.22;2044930;70;20217;-77
2024/01/15 02:59:35;;;;;;;2.85;1.67;;;;;;;1.89;65.70;91173.88;2045001;70;20564;-78
2024/01/15 03:02:00;;;;;;;3.58;1.60;;;;;;;1.86;65.83;91170.22;2045146;70;20258;-78
2024/01/15 03:04:26;;;;;;;3.05;1.73;;;;;;;1.78;65.98;91175.94;2044398;70;20147;-77
2024/01/15 03:06:52;;;;;;;2.42;1.35;;;;;;;1.77;66.16;91176.53;2045110;70;20605;-77
2024/01/15 03:09:17;;;;;;;3.20;1.60;;;;;;;1.71;66.39;91168.53;2044931;70;20151;-77
2024/01/15 03:11:43;;;;;;;2.65;1.52;;;;;;;1.77;66.85;91171.72;2044942;70;20143;-76
2024/01/15 03:14:08;;;;;;;2.88;1.70;;;;;;;1.25;68.53;91174.41;2044939;70;20175;-77
2024/01/15 03:16:34;;;;;;;2.50;1.55;;;;;;;1.17;69.30;91171.06;2045005;70;20710;-77
2024/01/15 03:19:01;;;;;;;2.50;1.92;;;;;;;1.55;67.87;91159.09;2044941;70;20175;-77
2024/01/15 03:21:26;;;;;;;5.07;1.92;;;;;;;1.36;68.37;91161.97;2044946;70;20210;-77
2024/01/15 03:23:52;;;;;;;2.67;1.70;;;;;;;1.25;68.73;91166.81;2044968;70;20579;-77
2024/01/15 03:26:18;;;;;;;3.35;1.90;;;;;;;1.53;67.20;91150.66;2044984;70;20242;-77
2024/01/15 03:28:44;;;;;;;2.47;1.63;;;;;;;1.53;67.49;91150.66;2045011;70;20131;-78
2024/01/15 03:31:09;;;;;;;2.45;1.60;;;;;;;1.46;68.01;91159.88;2045062;70;20319;-78
2024/01/15 03:33:35;;;;;;;2.08;1.48;;;;;;;1.47;67.31;91155.81;2045138;70;20162;-78
2024/01/15 03:36:01;;;;;;;2.80;1.50;;;;;;;1.42;68.30;91137.41;2045104;70;20561;-77
2024/01/15 03:38:28;;;;;;;2.58;1.50;;;;;;;0.95;69.56;91123.13;2044982;70;20203;-78
2024/01/15 03:40:54;;;;;;;2.58;1.70;;;;;;;0.81;70.70;91135.97;2045195;70;20143;-78
2024/01/15 03:43:20;;;;;;;3.38;1.40;;;;;;;1.15;68.76;91129.34;2044789;70;20143;-77
2024/01/15 03:45:45;;;;;;;6.57;3.75;;;;;;;1.15;69.03;91134.91;2045097;70;20139;-78
2024/01/15 03:48:11;;;;;;;3.97;2.40;;;;;;;1.29;68.51;91140.69;2044929;70;20538;-77
2024/01/15 03:50:37;;;;;;;2.83;1.60;;;;;;;1.22;68.61;91126.41;2045002;70;20139;-77
2024/01/15 03:53:03;;;;;;;4.22;2.47;;;;;;;1.26;69.09;91114.88;2044918;70;20196;-78
2024/01/15 03:55:28;;;;;;;5.95;3.65;;;;;;;0.74;70.03;91116.19;2044948;70;20590;-77
2024/01/15 03:57:54;;;;;;;7.57;3.60;;;;;;;1.01;69.39;91132.59;2044779;70;20153;-78
2024/01/15 04:00:19;;;;;;;6.97;3.60;;;;;;;1.01;69.32;91138.13;2044841;70;20166;-77
2024/01/15 04:02:45;;;;;;;5.40;3.58;;;;;;;1.02;69.69;91122.25;2044494;70;20181;-78
2024/01/15 04:05:11;;;;;;;6.22;3.33;;;;;;;1.05;69.46;91134.91;2044830;70;20147;-77
2024/01/15 04:07:36;;;;;;;5.35;3.13;;;;;;;0.88;70.56;91138.59;2044872;70;20142;-77
2024/01/15 04:10:02;;;;;;;5.25;3.10;;;;;;;0.85;70.05;91147.34;2044962;70;20219;-77
2024/01/15 04:12:28;;;;;;;4.10;2.58;;;;;;;0.89;69.18;91139.31;2044882;70;20146;-78
2024/01/15 04:14:53;;;;;;;3.85;2.35;;;;;;;0.87;69.49;91136.41;2044873;70;20170;-77
2024/01/15 04:17:21;;;;;;;5.25;2.90;;;;;;;0.55;71.02;91143.16;2045006;70;20247;-77
2024/01/15 04:19:47;;;;;;;4.50;2.63;;;;;;;0.71;69.67;91131.19;2044868;70;20171;-77
2024/01/15 04:22:13;;;;;;;3.63;2.10;;;;;;;0.71;69.58;91136.00;2044329;70;20151;-77
2024/01/15 04:24:39;;;;;;;5.47;2.35;;;;;;;0.33;71.76;91136.75;2044904;70;20307;-77
2024/01/15 04:27:06;;;;;;;8.25;3.72;;;;;;;-0.13;72.46;91146.63;2044748;70;20171;-78
2024/01/15 04:29:31;;;;;;;8.95;4.57;;;;;;;0.04;72.03;91131.91;2045030;70;20632;-77
2024/01/15 04:31:57;;;;;;;13.35;5.65;;;;;;;0.03;70.97;91138.03;2044881;70;20226;-78
2024/01/15 04:34:22;;;;;;;15.95;8.38;;;;;;;-0.21;70.75;91142.53;2044854;70;20520;-78
2024/01/15 04:36:49;;;;;;;23.95;12.77;;;;;;;-0.39;70.97;91148.16;2044862;70;20147;-77
2024/01/15 04:39:14;;;;;;;21.15;11.30;;;;;;;-0.26;70.42;91144.25;2044846;70;20158;-77
2024/01/15 04:41:40;;;;;;;21.27;11.73;;;;;;;-0.57;70.69;91144.75;2044187;70;20592;-76
2024/01/15 04:44:06;;;;;;;28.27;14.05;;;;;;;-0.99;71.49;91150.53;2044781;70;20583;-77
2024/01/15 04:46:31;;;;;;;30.35;14.30;;;;;;;-0.51;70.10;91141.69;2044908;70;20143;-77
2024/01/15 04:48:57;;;;;;;24.38;13.60;;;;;;;-0.45;69.50;91141.44;2044996;70;20139;-75
2024/01/15 04:51:22;;;;;;;26.65;13.70;;;;;;;-0.52;70.16;91123.66;2044859;70;20154;-76
2024/01/15 04:53:48;;;;;;;24.50;13.77;;;;;;;-1.31;72.74;91135.69;2044974;70;20588;-77
2024/01/15 04:56:14;;;;;;;29.30;14.95;;;;;;;-1.27;72.05;91140.06;2044853;70;20177;-77
2024/01/15 04:58:39;;;;;;;29.92;16.23;;;;;;;-1.49;72.76;91144.56;2044621;70;20627;-77
2024/01/15 05:01:05;;;;;;;30.02;15.77;;;;;;;-1.33;72.09;91143.81;2044301;70;20201;-77
2024/01/15 05:03:30;;;;;;;33.20;16.05;;;;;;;-1.61;72.16;91155.38;2044816;70;20147;-77
2024/01/15 05:05:57;;;;;;;34.05;16.55;;;;;;;-1.63;72.29;91160.75;2044926;70;20147;-76
2024/01/15 05:08:23;;;;;;;37.38;18.17;;;;;;;-1.77;72.93;91165.88;2044755;70;20639;-77
2024/01/15 05:10:48;;;;;;;36.80;18.25;;;;;;;-1.74;73.35;91172.25;2044682;70;20183;-79
2024/01/15 05:13:14;;;;;;;35.35;17.00;;;;;;;-1.83;74.08;91174.38;2044646;70;20157;-78
2024/01/15 05:15:40;;;;;;;30.92;16.50;;;;;;;-2.51;76.39;91172.28;2044750;70;20220;-78
2024/01/15 05:18:06;;;;;;;32.17;16.08;;;;;;;-2.34;76.06;91181.31;2044746;70;20147;-78
2024/01/15 05:20:31;;;;;;;32.38;16.88;;;;;;;-2.00;74.51;91170.88;2044833;70;20139;-78
2024/01/15 05:22:57;;;;;;;31.13;16.77;;;;;;;-2.25;75.55;91168.91;2044280;70;20154;-78
2024/01/15 05:25:22;;;;;;;34.08;17.95;;;;;;;-2.05;74.86;91176.06;2044213;70;20232;-77
2024/01/15 05:27:48;;;;;;;33.47;17.10;;;;;;;-1.78;73.47;91175.44;2044573;70;20150;-78
2024/01/15 05:30:14;;;;;;;30.83;16.13;;;;;;;-1.84;72.68;91172.19;2044703;70;20142;-78
2024/01/15 05:32:40;;;;;;;33.83;16.85;;;;;;;-2.23;73.69;91180.09;2044703;70;20147;-77
2024/01/15 05:35:06;;;;;;;32.13;17.23;;;;;;;-2.13;74.27;91188.47;2044677;70;20155;-78
2024/01/15 05:37:32;;;;;;;37.38;17.77;;;;;;;-1.76;72.92;91174.88;2044680;70;20608;-78
2024/01/15 05:39:58;;;;;;;31.27;17.83;;;;;;;-1.87;73.14;91181.59;2044773;70;20189;-78
2024/01/15 05:42:24;;;;;;;33.72;17.77;;;;;;;-2.27;73.88;91176.28;2044692;70;20179;-79
2024/01/15 05:44:49;;;;;;;36.97;18.48;;;;;;;-2.03;73.61;91188.56;2044810;70;20183;-78
2024/01/15 05:47:15;;;;;;;33.80;17.20;;;;;;;-2.04;74.21;91190.59;2044679;70;20170;-78
2024/01/15 05:49:40;;;;;;;36.60;17.23;;;;;;;-1.77;72.45;91185.19;2044637;70;20503;-78
2024/01/15 05:52:06;;;;;;;29.85;17.63;;;;;;;-1.85;72.48;91176.97;2044830;70;20230;-78
2024/01/15 05:54:32;;;;;;;42.08;18.83;;;;;;;-2.83;75.40;91187.56;2044603;70;20603;-78
2024/01/15 05:56:57;;;;;;;38.83;18.38;;;;;;;-2.36;74.62;91196.94;2044534;70;20607;-78
2024/01/15 05:59:23;;;;;;;36.10;18.58;;;;;;;-2.19;73.57;91207.28;2044462;70;20147;-78
2024/01/15 06:01:49;;;;;;;36.08;17.75;;;;;;;-1.98;73.37;91204.13;2044613;70;20313;-78
2024/01/15 06:04:14;;;;;;;36.13;18.38;;;;;;;-1.97;71.96;91191.81;2044637;70;20173;-78
2024/01/15 06:06:40;;;;;;;34.15;17.88;;;;;;;-1.98;72.27;91204.88;2044555;70;20610;-78
2024/01/15 06:09:05;;;;;;;35.72;19.00;;;;;;;-2.12;73.38;91212.72;2044035;70;20194;-78
2024/01/15 06:11:32;;;;;;;34.35;18.70;;;;;;;-1.94;72.52;91210.72;2044522;70;20155;-78
2024/01/15 06:13:58;;;;;;;34.60;17.88;;;;;;;-1.77;72.10;91198.97;2044260;70;20579;-77
2024/01/15 06:16:24;;;;;;;39.17;20.48;;;;;;;-1.88;72.46;91210.47;2041408;70;20162;-78
2024/01/15 06:18:50;;;;;;;39.22;20.17;;;;;;;-1.92;72.11;91204.66;2041230;70;20596;-78
2024/01/15 06:21:16;;;;;;;40.35;20.20;;;;;;;-1.76;72.01;91205.22;2041482;70;20162;-78
2024/01/15 06:23:42;;;;;;;34.72;18.90;;;;;;;-1.86;71.88;91205.84;2041519;70;20178;-77
2024/01/15 06:26:07;;;;;;;33.97;18.70;;;;;;;-1.97;71.96;91206.34;2041916;70;20128;-78
2024/01/15 06:28:33;;;;;;;35.85;17.77;;;;;;;-1.91;72.00;91212.34;2041903;70;20175;-78
2024/01/15 06:30:58;;;;;;;36.42;18.08;;;;;;;-1.88;71.24;91218.75;2041932;70;20150;-77
2024/01/15 06:33:24;;;;;;;34.97;17.60;;;;;;;-1.86;71.74;91211.38;2041891;70;20155;-77
2024/01/15 06:35:50;;;;;;;41.70;21.73;;;;;;;-2.02;71.60;91201.03;2041887;70;20204;-78
2024/01/15 06:38:16;;;;;;;36.53;20.02;;;;;;;-2.02;72.09;91220.34;2041256;70;20167;-78
2024/01/15 06:40:45;;;;;;;37.20;19.73;;;;;;;-1.92;71.78;91218.44;2041747;70;20167;-77
2024/01/15 06:43:15;;;;;;;40.92;20.92;;;;;;;-1.92;71.87;91216.41;2041640;70;20187;-77
2024/01/15 06:45:40;;;;;;;35.72;19.58;;;;;;;-2.16;73.06;91237.19;2041819;70;20234;-77
2024/01/15 06:48:07;;;;;;;34.53;18.67;;;;;;;-2.04;73.12;91231.97;2041817;70;20614;-78
2024/01/15 06:50:33;;;;;;;41.35;20.08;;;;;;;-2.11;72.79;91227.97;2041763;70;20144;-78
2024/01/15 06:53:00;;;;;;;43.40;21.80;;;;;;;-2.64;76.26;91222.88;2041806;70;20150;-78
2024/01/15 06:55:26;;;;;;;51.08;27.92;;;;;;;-2.53;75.85;91216.91;2041736;70;20161;-80
2024/01/15 06:57:51;;;;;;;44.90;23.98;;;;;;;-2.78;77.89;91218.94;2041584;70;20159;-81
2024/01/15 07:00:19;;;;;;;44.13;23.17;;;;;;;-2.37;75.49;91214.78;2041624;70;20185;-79
2024/01/15 07:02:45;;;;;;;39.83;21.25;;;;;;;-2.00;73.90;91215.00;2041670;70;20151;-78
2024/01/15 07:05:11;;;;;;;39.17;20.50;;;;;;;-1.89;72.97;91218.00;2041669;70;20239;-78
2024/01/15 07:07:37;;;;;;;34.88;19.17;;;;;;;-2.00;72.66;91221.25;2041721;70;20231;-78
2024/01/15 07:10:03;;;;;;;38.17;20.50;;;;;;;-2.41;74.64;91217.94;2041760;70;20154;-80
2024/01/15 07:12:29;;;;;;;41.95;19.83;;;;;;;-2.48;75.07;91226.97;2041508;70;20159;-78
2024/01/15 07:14:57;;;;;;;37.92;20.02;;;;;;;-2.29;74.79;91220.97;2041562;70;20155;-78
2024/01/15 07:17:23;;;;;;;36.60;19.23;;;;;;;-2.22;73.62;91227.69;2041783;70;20193;-78
2024/01/15 07:19:48;;;;;;;36.40;20.55;;;;;;;-2.19;73.97;91230.06;2041617;70;20152;-79
2024/01/15 07:22:15;;;;;;;37.20;20.17;;;;;;;-2.44;74.61;91232.81;2041553;70;20152;-78
2024/01/15 07:24:40;;;;;;;34.70;20.00;;;;;;;-2.23;74.32;91240.75;2041738;70;20158;-79
2024/01/15 07:27:06;;;;;;;41.28;20.90;;;;;;;-2.32;74.39;91239.34;2041560;70;20144;-79
2024/01/15 07:29:37;;;;;;;39.83;21.95;;;;;;;-2.46;75.74;91240.22;2041141;70;20149;-79
2024/01/15 07:32:04;;;;;;;39.13;21.40;;;;;;;-2.13;74.49;91244.34;2041592;70;20134;-79
2024/01/15 07:34:29;;;;;;;41.03;22.35;;;;;;;-2.12;74.03;91243.03;2041011;70;20167;-79
2024/01/15 07:36:55;;;;;;;40.53;21.77;;;;;;;-1.94;73.09;91243.06;2041601;70;20231;-80
2024/01/15 07:39:23;;;;;;;35.55;20.55;;;;;;;-2.05;72.93;91244.28;2041618;70;20243;-78
2024/01/15 07:41:48;;;;;;;36.95;20.13;;;;;;;-1.88;72.83;91244.31;2041478;70;20155;-78
2024/01/15 07:44:16;;;;;;;41.55;20.90;;;;;;;-2.06;73.62;91253.84;2041516;70;20143;-78
2024/01/15 07:46:45;;;;;;;38.20;21.20;;;;;;;-2.35;74.27;91254.25;2041736;70;20186;-79
2024/01/15 07:49:11;;;;;;;43.70;22.27;;;;;;;-2.30;74.30;91247.06;2041491;70;20242;-80
2024/01/15 07:51:40;;;;;;;43.95;23.30;;;;;;;-2.26;74.72;91244.63;2040979;70;20262;-77
2024/01/15 07:54:07;;;;;;;48.80;25.05;;;;;;;-2.02;73.92;91254.16;2041520;70;20657;-78
2024/01/15 07:56:53;;;;;;;50.15;24.63;;;;;;;-1.84;72.68;91249.41;2040923;70;20624;-78
2024/01/15 07:59:19;;;;;;;46.75;24.88;;;;;;;-1.78;72.37;91252.69;2041502;70;20154;-78
2024/01/15 08:01:45;;;;;;;56.38;29.23;;;;;;;-2.09;73.63;91241.91;2041664;70;20584;-77
2024/01/15 08:04:12;;;;;;;76.55;36.15;;;;;;;-1.90;72.97;91252.41;2041516;70;20151;-79
2024/01/15 08:06:39;;;;;;;76.65;35.40;;;;;;;-1.79;72.53;91242.94;2040971;70;20588;-79
2024/01/15 08:09:05;;;;;;;70.55;34.45;;;;;;;-2.04;73.22;91251.25;2042121;70;20158;-78
2024/01/15 08:11:31;;;;;;;68.93;33.60;;;;;;;-1.93;73.56;91252.81;2041508;70;20127;-76
2024/01/15 08:13:56;;;;;;;66.30;34.30;;;;;;;-1.96;73.70;91248.44;2041711;70;20202;-78
2024/01/15 08:16:24;;;;;;;68.35;34.90;;;;;;;-1.81;73.48;91253.81;2041553;70;20139;-77
2024/01/15 08:18:49;;;;;;;70.93;32.60;;;;;;;-1.70;73.26;91256.09;2040968;70;20147;-80
2024/01/15 08:21:15;;;;;;;65.78;31.73;;;;;;;-1.50;72.40;91273.56;2041679;70;20186;-78
2024/01/15 08:23:42;;;;;;;54.80;27.40;;;;;;;-1.41;72.03;91266.66;2041694;70;20194;-78
2024/01/15 08:26:09;;;;;;;49.03;26.42;;;;;;;-1.46;72.22;91260.09;2043745;70;20148;-78
2024/01/15 08:28:34;;;;;;;55.67;28.67;;;;;;;-1.28;72.61;91260.81;2041390;70;20231;-77
2024/01/15 08:31:00;;;;;;;48.08;26.90;;;;;;;-1.10;71.66;91253.97;2041520;70;20134;-78
2024/01/15 08:33:25;;;;;;;50.08;27.42;;;;;;;-1.01;71.57;91252.56;2041497;70;20231;-78
2024/01/15 08:35:51;;;;;;;49.05;27.23;;;;;;;-0.98;71.19;91243.13;2041408;70;20234;-76
2024/01/15 08:38:17;;;;;;;53.83;28.55;;;;;;;-0.89;70.64;91239.72;2041633;70;20527;-78
2024/01/15 08:40:42;;;;;;;50.58;27.30;;;;;;;-0.99;70.46;91247.22;2041459;70;20155;-78
2024/01/15 08:43:08;;;;;;;56.65;29.65;;;;;;;-1.04;70.85;91254.44;2041399;70;20624;-78
2024/01/15 08:45:33;;;;;;;62.47;30.45;;;;;;;-1.34;71.87;91260.31;2041415;70;20152;-78
2024/01/15 08:47:59;;;;;;;68.57;32.50;;;;;;;-1.33;72.36;91267.28;2041700;70;20147;-79
2024/01/15 08:50:25;;;;;;;49.40;26.02;;;;;;;-1.57;73.33;91264.03;2041476;70;20147;-80
2024/01/15 08:52:50;;;;;;;43.80;24.10;;;;;;;-1.35;72.90;91262.34;2041604;70;20146;-77
2024/01/15 08:55:16;;;;;;;45.78;23.58;;;;;;;-1.02;71.91;91276.69;2041446;70;20169;-75
2024/01/15 08:57:41;;;;;;;40.75;23.05;;;;;;;-1.27;72.96;91265.03;2041298;70;20159;-79
2024/01/15 09:00:10;;;;;;;40.33;22.40;;;;;;;-1.09;72.26;91252.69;2041333;70;20151;-79
2024/01/15 09:02:36;;;;;;;43.28;22.58;;;;;;;-1.14;72.37;91261.22;2041456;70;20171;-77
2024/01/15 09:05:04;;;;;;;42.13;22.52;;;;;;;-0.92;71.94;91262.22;2041479;70;20143;-77
2024/01/15 09:07:29;;;;;;;40.83;23.05;;;;;;;-0.93;71.68;91249.72;2041505;70;20175;-77
2024/01/15 09:09:55;;;;;;;41.90;22.23;;;;;;;-0.80;71.23;91261.13;2041541;70;20266;-77
2024/01/15 09:12:22;;;;;;;40.35;21.95;;;;;;;-0.73;71.28;91251.31;2041398;70;20630;-77
2024/01/15 09:14:47;;;;;;;38.47;21.85;;;;;;;-0.88;71.68;91257.75;2041382;70;20713;-78
2024/01/15 09:17:13;;;;;;;37.33;21.17;;;;;;;-0.72;71.16;91266.56;2040956;70;20214;-78
2024/01/15 09:19:42;;;;;;;41.50;23.50;;;;;;;-0.97;72.45;91263.94;2040954;70;20291;-79
2024/01/15 09:22:08;;;;;;;36.25;20.75;;;;;;;-0.44;71.47;91261.78;2041373;70;20136;-79
2024/01/15 09:24:33;;;;;;;37.30;20.33;;;;;;;-0.68;71.69;91249.59;2041428;70;20618;-80
2024/01/15 09:26:59;;;;;;;36.95;20.05;;;;;;;-0.96;72.19;91261.91;2040827;70;20134;-78
2024/01/15 09:29:25;;;;;;;36.45;21.08;;;;;;;-0.58;73.03;91259.38;2041631;70;20158;-78
2024/01/15 09:31:53;;;;;;;37.00;20.65;;;;;;;-0.17;71.56;91256.94;2041513;70;20242;-80
2024/01/15 09:34:18;;;;;;;34.90;20.55;;;;;;;-0.05;71.73;91254.34;2041458;70;20169;-80
2024/01/15 09:36:44;;;;;;;36.40;21.70;;;;;;;-0.36;72.62;91249.31;2041674;70;20584;-77
2024/01/15 09:39:11;;;;;;;35.50;19.67;;;;;;;-0.57;72.88;91255.31;2041473;70;20155;-76
2024/01/15 09:41:40;;;;;;;41.95;21.15;;;;;;;0.24;71.77;91249.66;2041398;70;20150;-78
2024/01/15 09:44:07;;;;;;;36.95;21.60;;;;;;;0.55;70.50;91253.91;2041515;70;20167;-79
2024/01/15 09:46:34;;;;;;;39.90;21.10;;;;;;;0.40;70.67;91252.16;2041531;70;20144;-78
2024/01/15 09:49:01;;;;;;;37.67;20.90;;;;;;;0.23;71.53;91247.47;2041333;70;20135;-78
2024/01/15 09:51:31;;;;;;;73.03;31.85;;;;;;;0.58;70.58;91253.47;2041444;70;20667;-76
2024/01/15 09:53:58;;;;;;;45.88;24.50;;;;;;;0.84;69.84;91251.19;2041329;70;20227;-75
2024/01/15 09:56:24;;;;;;;66.65;28.67;;;;;;;1.23;67.38;91229.69;2040739;70;20154;-75
2024/01/15 09:58:52;;;;;;;51.33;24.70;;;;;;;1.15;67.31;91249.25;2041790;70;20207;-75
2024/01/15 10:01:20;;;;;;;36.05;21.15;;;;;;;0.91;69.17;91244.75;2041933;70;20147;-77
2024/01/15 10:03:46;;;;;;;34.83;20.23;;;;;;;1.46;67.69;91241.03;2041885;70;20707;-76
2024/01/15 10:06:17;;;;;;;34.35;20.42;;;;;;;1.63;67.22;91239.38;2041894;70;20163;-76
2024/01/15 10:08:48;;;;;;;34.20;20.40;;;;;;;1.18;66.94;91239.75;2041875;70;20544;-77
2024/01/15 10:11:14;;;;;;;34.88;20.88;;;;;;;1.44;67.68;91220.75;2041876;70;20603;-78
2024/01/15 10:13:39;;;;;;;32.85;20.73;;;;;;;1.74;65.99;91222.84;2041796;70;20155;-77
2024/01/15 10:16:06;;;;;;;46.03;26.52;;;;;;;1.25;67.29;91205.63;2041878;70;20140;-76
2024/01/15 10:18:32;;;;;;;34.65;21.73;;;;;;;1.14;67.59;91206.22;2041849;70;20222;-77
2024/01/15 10:20:58;;;;;;;42.50;23.92;;;;;;;1.39;66.79;91205.16;2041797;70;20229;-78
2024/01/15 10:23:24;;;;;;;40.40;23.80;;;;;;;1.92;66.07;91203.91;2038556;70;20156;-77
2024/01/15 10:25:51;;;;;;;39.28;23.25;;;;;;;2.16;65.74;91188.19;2041732;70;20638;-78
2024/01/15 10:28:19;;;;;;;33.25;20.45;;;;;;;2.24;64.64;91190.75;2041655;70;20186;-79
2024/01/15 10:30:45;;;;;;;34.22;20.05;;;;;;;2.33;64.43;91178.13;2041763;70;20242;-80
2024/01/15 10:33:11;;;;;;;32.78;19.70;;;;;;;2.06;64.41;91176.38;2041956;70;20182;-78
2024/01/15 10:35:38;;;;;;;34.92;21.15;;;;;;;1.69;65.23;91165.63;2041830;70;20146;-79
2024/01/15 10:38:05;;;;;;;34.80;21.05;;;;;;;2.10;65.58;91156.50;2041824;70;20259;-80
2024/01/15 10:40:31;;;;;;;35.58;20.95;;;;;;;2.57;64.57;91154.75;2041842;70;20524;-76
2024/01/15 10:42:58;;;;;;;35.92;21.73;;;;;;;3.24;64.42;91150.59;2041675;70;20619;-78
2024/01/15 10:45:24;;;;;;;34.53;19.90;;;;;;;4.83;62.31;91140.47;2041881;70;20144;-77
2024/01/15 10:47:50;;;;;;;32.03;19.70;;;;;;;6.24;58.51;91139.63;2041928;70;20151;-78
2024/01/15 10:50:16;;;;;;;31.75;20.23;;;;;;;6.67;57.30;91135.47;2041795;70;20158;-76
2024/01/15 10:52:43;;;;;;;36.05;20.90;;;;;;;6.20;56.19;91135.91;2041902;70;20150;-76
2024/01/15 10:55:09;;;;;;;40.22;22.58;;;;;;;7.08;55.52;91119.31;2041698;70;20610;-76
2024/01/15 10:57:38;;;;;;;30.63;19.67;;;;;;;8.09;52.55;91114.13;2041598;70;20592;-79
2024/01/15 11:00:05;;;;;;;40.00;22.00;;;;;;;7.02;52.51;91115.50;2041787;70;20672;-77
2024/01/15 11:02:36;;;;;;;27.42;18.92;;;;;;;8.50;51.00;91126.41;2041762;70;20242;-77
2024/01/15 11:05:01;;;;;;;25.83;16.67;;;;;;;10.03;50.27;91110.72;2041871;70;20234;-78
2024/01/15 11:07:29;;;;;;;24.75;15.88;;;;;;;11.37;47.67;91114.00;2041800;70;20199;-76
2024/01/15 11:09:55;;;;;;;36.28;20.95;;;;;;;9.28;46.21;91119.81;2041735;70;20163;-77
2024/01/15 11:12:20;;;;;;;42.45;22.95;;;;;;;9.68;49.97;91125.59;2041590;70;20135;-76
2024/01/15 11:14:48;;;;;;;22.75;16.10;;;;;;;12.74;45.31;91118.81;2041686;70;20167;-77
2024/01/15 11:17:15;;;;;;;22.88;15.63;;;;;;;13.93;41.23;91139.53;2041880;70;20527;-76
2024/01/15 11:19:47;;;;;;;21.50;15.38;;;;;;;14.72;41.80;91115.78;2041674;70;20178;-75
2024/01/15 11:22:32;;;;;;;20.75;13.88;;;;;;;14.57;40.74;91124.66;2041645;70;20171;-74